<?xml version="1.0" encoding="UTF-8" standalone="no" ?><gpx xmlns="http://www.topografix.com/GPX/1/1" xmlns:gpxx="http://www.garmin.com/xmlschemas/GpxExtensions/v3" xmlns:wptx1="http://www.garmin.com/xmlschemas/WaypointExtension/v1" xmlns:gpxtpx="http://www.garmin.com/xmlschemas/TrackPointExtension/v1" creator="GuideVTT.com" version="1.1" xmlns:xsi="http://www.w3.org/2001/XMLSchema-instance" xsi:schemaLocation="http://www.topografix.com/GPX/1/1 http://www.topografix.com/GPX/1/1/gpx.xsd http://www.garmin.com/xmlschemas/GpxExtensions/v3 http://www8.garmin.com/xmlschemas/GpxExtensionsv3.xsd http://www.garmin.com/xmlschemas/WaypointExtension/v1 http://www8.garmin.com/xmlschemas/WaypointExtensionv1.xsd http://www.garmin.com/xmlschemas/TrackPointExtension/v1 http://www.garmin.com/xmlschemas/TrackPointExtensionv1.xsd">
<metadata><link href="http://www.garmin.com"><text>Garmin International</text></link><time>2013-06-22T15:13:50Z</time></metadata>
<trk><name>rp_vtt_2010_6.gpx</name><extensions><gpxx:TrackExtension><gpxx:DisplayColor>Cyan</gpxx:DisplayColor></gpxx:TrackExtension></extensions><trkseg>
<trkpt lat="46.51413918" lon="6.62887573"><ele>424.559448</ele><time>2010-05-29T12:33:33Z</time></trkpt>
<trkpt lat="46.51364565" lon="6.63108587"><ele>424.078735</ele><time>2010-05-29T12:34:27Z</time></trkpt>
<trkpt lat="46.51263714" lon="6.63361788"><ele>429.846558</ele><time>2010-05-29T12:35:17Z</time></trkpt>
<trkpt lat="46.51268005" lon="6.63396120"><ele>430.327271</ele><time>2010-05-29T12:35:26Z</time></trkpt>
<trkpt lat="46.51094198" lon="6.63709402"><ele>423.117432</ele><time>2010-05-29T12:36:10Z</time></trkpt>
<trkpt lat="46.51102781" lon="6.63737297"><ele>423.117432</ele><time>2010-05-29T12:36:14Z</time></trkpt>
<trkpt lat="46.51171446" lon="6.63827419"><ele>425.520752</ele><time>2010-05-29T12:36:35Z</time></trkpt>
<trkpt lat="46.51173592" lon="6.63966894"><ele>426.001343</ele><time>2010-05-29T12:36:56Z</time></trkpt>
<trkpt lat="46.51220798" lon="6.64069891"><ele>431.769165</ele><time>2010-05-29T12:37:23Z</time></trkpt>
<trkpt lat="46.51222944" lon="6.64310217"><ele>426.962769</ele><time>2010-05-29T12:37:58Z</time></trkpt>
<trkpt lat="46.51229382" lon="6.64368153"><ele>428.885376</ele><time>2010-05-29T12:38:11Z</time></trkpt>
<trkpt lat="46.51244402" lon="6.64383173"><ele>426.001343</ele><time>2010-05-29T12:38:24Z</time></trkpt>
<trkpt lat="46.51231527" lon="6.64488316"><ele>429.846558</ele><time>2010-05-29T12:38:54Z</time></trkpt>
<trkpt lat="46.51246548" lon="6.64496899"><ele>429.846558</ele><time>2010-05-29T12:38:59Z</time></trkpt>
<trkpt lat="46.51252985" lon="6.64529085"><ele>431.769165</ele><time>2010-05-29T12:39:06Z</time></trkpt>
<trkpt lat="46.51231527" lon="6.64587021"><ele>438.017822</ele><time>2010-05-29T12:39:23Z</time></trkpt>
<trkpt lat="46.51212215" lon="6.64745808"><ele>454.84082</ele><time>2010-05-29T12:40:23Z</time></trkpt>
<trkpt lat="46.51280880" lon="6.65097713"><ele>465.896118</ele><time>2010-05-29T12:41:53Z</time></trkpt>
<trkpt lat="46.51298046" lon="6.65363789"><ele>465.896118</ele><time>2010-05-29T12:42:33Z</time></trkpt>
<trkpt lat="46.51355982" lon="6.65419579"><ele>463.973389</ele><time>2010-05-29T12:42:48Z</time></trkpt>
<trkpt lat="46.51366711" lon="6.65488243"><ele>464.454102</ele><time>2010-05-29T12:42:58Z</time></trkpt>
<trkpt lat="46.51366711" lon="6.65674925"><ele>464.934814</ele><time>2010-05-29T12:43:31Z</time></trkpt>
<trkpt lat="46.51325941" lon="6.65739298"><ele>463.492798</ele><time>2010-05-29T12:43:39Z</time></trkpt>
<trkpt lat="46.51321650" lon="6.65782213"><ele>463.973389</ele><time>2010-05-29T12:43:44Z</time></trkpt>
<trkpt lat="46.51332378" lon="6.66035414"><ele>458.686157</ele><time>2010-05-29T12:44:15Z</time></trkpt>
<trkpt lat="46.51313066" lon="6.66149139"><ele>459.16687</ele><time>2010-05-29T12:44:28Z</time></trkpt>
<trkpt lat="46.51308775" lon="6.66370153"><ele>457.244263</ele><time>2010-05-29T12:44:58Z</time></trkpt>
<trkpt lat="46.51276588" lon="6.66466713"><ele>455.802246</ele><time>2010-05-29T12:45:13Z</time></trkpt>
<trkpt lat="46.51190758" lon="6.66634083"><ele>453.398926</ele><time>2010-05-29T12:45:34Z</time></trkpt>
<trkpt lat="46.51171446" lon="6.66945219"><ele>453.879639</ele><time>2010-05-29T12:46:17Z</time></trkpt>
<trkpt lat="46.51186466" lon="6.67050362"><ele>452.437622</ele><time>2010-05-29T12:46:27Z</time></trkpt>
<trkpt lat="46.51205778" lon="6.67082548"><ele>452.437622</ele><time>2010-05-29T12:46:31Z</time></trkpt>
<trkpt lat="46.51289463" lon="6.67151213"><ele>452.918213</ele><time>2010-05-29T12:46:44Z</time></trkpt>
<trkpt lat="46.51332378" lon="6.67301416"><ele>448.111816</ele><time>2010-05-29T12:46:57Z</time></trkpt>
<trkpt lat="46.51371002" lon="6.67359352"><ele>447.150269</ele><time>2010-05-29T12:47:03Z</time></trkpt>
<trkpt lat="46.51383877" lon="6.67408705"><ele>444.74707</ele><time>2010-05-29T12:47:10Z</time></trkpt>
<trkpt lat="46.51334524" lon="6.67445183"><ele>451.476318</ele><time>2010-05-29T12:47:30Z</time></trkpt>
<trkpt lat="46.51259422" lon="6.67391539"><ele>454.360229</ele><time>2010-05-29T12:47:55Z</time></trkpt>
<trkpt lat="46.51158571" lon="6.67406559"><ele>466.376709</ele><time>2010-05-29T12:49:24Z</time></trkpt>
<trkpt lat="46.51117802" lon="6.67318583"><ele>463.012085</ele><time>2010-05-29T12:49:54Z</time></trkpt>
<trkpt lat="46.51068449" lon="6.67288542"><ele>460.608765</ele><time>2010-05-29T12:50:00Z</time></trkpt>
<trkpt lat="46.51051283" lon="6.67301416"><ele>459.647583</ele><time>2010-05-29T12:50:04Z</time></trkpt>
<trkpt lat="46.50946140" lon="6.67503119"><ele>455.802246</ele><time>2010-05-29T12:50:43Z</time></trkpt>
<trkpt lat="46.50916100" lon="6.67608261"><ele>452.437622</ele><time>2010-05-29T12:50:56Z</time></trkpt>
<trkpt lat="46.50860310" lon="6.67616844"><ele>450.515015</ele><time>2010-05-29T12:51:07Z</time></trkpt>
<trkpt lat="46.50778770" lon="6.67760611"><ele>442.343872</ele><time>2010-05-29T12:51:25Z</time></trkpt>
<trkpt lat="46.50722980" lon="6.67809963"><ele>438.979126</ele><time>2010-05-29T12:51:33Z</time></trkpt>
<trkpt lat="46.50692940" lon="6.67897940"><ele>437.056519</ele><time>2010-05-29T12:51:42Z</time></trkpt>
<trkpt lat="46.50688648" lon="6.67996645"><ele>435.614502</ele><time>2010-05-29T12:51:52Z</time></trkpt>
<trkpt lat="46.50703669" lon="6.68013811"><ele>435.614502</ele><time>2010-05-29T12:51:58Z</time></trkpt>
<trkpt lat="46.50757313" lon="6.68013811"><ele>440.421265</ele><time>2010-05-29T12:52:26Z</time></trkpt>
<trkpt lat="46.50770187" lon="6.68041706"><ele>442.343872</ele><time>2010-05-29T12:52:37Z</time></trkpt>
<trkpt lat="46.50798082" lon="6.68322802"><ele>438.498535</ele><time>2010-05-29T12:53:23Z</time></trkpt>
<trkpt lat="46.50883913" lon="6.68288469"><ele>449.553711</ele><time>2010-05-29T12:54:18Z</time></trkpt>
<trkpt lat="46.50892496" lon="6.68305635"><ele>450.515015</ele><time>2010-05-29T12:54:24Z</time></trkpt>
<trkpt lat="46.50965452" lon="6.68706894"><ele>462.050781</ele><time>2010-05-29T12:56:13Z</time></trkpt>
<trkpt lat="46.50935411" lon="6.68936491"><ele>471.18335</ele><time>2010-05-29T12:57:12Z</time></trkpt>
<trkpt lat="46.50969744" lon="6.68998718"><ele>475.509277</ele><time>2010-05-29T12:57:33Z</time></trkpt>
<trkpt lat="46.50984764" lon="6.69069529"><ele>475.989868</ele><time>2010-05-29T12:57:49Z</time></trkpt>
<trkpt lat="46.51072741" lon="6.69170380"><ele>486.564453</ele><time>2010-05-29T12:58:36Z</time></trkpt>
<trkpt lat="46.51038408" lon="6.69198275"><ele>476.951294</ele><time>2010-05-29T12:58:48Z</time></trkpt>
<trkpt lat="46.51014805" lon="6.69286251"><ele>470.702637</ele><time>2010-05-29T12:59:24Z</time></trkpt>
<trkpt lat="46.50941849" lon="6.69294834"><ele>480.796631</ele><time>2010-05-29T13:01:18Z</time></trkpt>
<trkpt lat="46.50881767" lon="6.69350624"><ele>476.951294</ele><time>2010-05-29T13:01:37Z</time></trkpt>
<trkpt lat="46.50813103" lon="6.69494390"><ele>478.393188</ele><time>2010-05-29T13:02:01Z</time></trkpt>
<trkpt lat="46.50774479" lon="6.69494390"><ele>474.067261</ele><time>2010-05-29T13:02:08Z</time></trkpt>
<trkpt lat="46.50757313" lon="6.69483662"><ele>470.221924</ele><time>2010-05-29T13:02:15Z</time></trkpt>
<trkpt lat="46.50714397" lon="6.69312000"><ele>466.376709</ele><time>2010-05-29T13:02:41Z</time></trkpt>
<trkpt lat="46.50658607" lon="6.69269085"><ele>467.338135</ele><time>2010-05-29T13:02:57Z</time></trkpt>
<trkpt lat="46.50675774" lon="6.69245481"><ele>464.454102</ele><time>2010-05-29T13:03:07Z</time></trkpt>
<trkpt lat="46.50647879" lon="6.69071674"><ele>446.669678</ele><time>2010-05-29T13:03:23Z</time></trkpt>
<trkpt lat="46.50489092" lon="6.68915033"><ele>409.659058</ele><time>2010-05-29T13:03:56Z</time></trkpt>
<trkpt lat="46.50446177" lon="6.68857098"><ele>401.968506</ele><time>2010-05-29T13:04:11Z</time></trkpt>
<trkpt lat="46.50336742" lon="6.69101715"><ele>405.813721</ele><time>2010-05-29T13:05:27Z</time></trkpt>
<trkpt lat="46.50233746" lon="6.69030905"><ele>389.471191</ele><time>2010-05-29T13:05:48Z</time></trkpt>
<trkpt lat="46.50203705" lon="6.69103861"><ele>390.432617</ele><time>2010-05-29T13:06:09Z</time></trkpt>
<trkpt lat="46.50158644" lon="6.69166088"><ele>387.067993</ele><time>2010-05-29T13:06:28Z</time></trkpt>
<trkpt lat="46.50079250" lon="6.69118881"><ele>384.184082</ele><time>2010-05-29T13:07:09Z</time></trkpt>
<trkpt lat="46.50053501" lon="6.69241190"><ele>383.222656</ele><time>2010-05-29T13:07:28Z</time></trkpt>
<trkpt lat="46.50029898" lon="6.69490099"><ele>381.78064</ele><time>2010-05-29T13:07:54Z</time></trkpt>
<trkpt lat="46.49993420" lon="6.69631720"><ele>381.300049</ele><time>2010-05-29T13:08:11Z</time></trkpt>
<trkpt lat="46.49834633" lon="6.70097351"><ele>384.184082</ele><time>2010-05-29T13:09:12Z</time></trkpt>
<trkpt lat="46.49780989" lon="6.70185328"><ele>386.106689</ele><time>2010-05-29T13:09:26Z</time></trkpt>
<trkpt lat="46.49677992" lon="6.70423508"><ele>388.51001</ele><time>2010-05-29T13:09:59Z</time></trkpt>
<trkpt lat="46.49617910" lon="6.70528650"><ele>388.029297</ele><time>2010-05-29T13:10:17Z</time></trkpt>
<trkpt lat="46.49587870" lon="6.70620918"><ele>387.067993</ele><time>2010-05-29T13:10:33Z</time></trkpt>
<trkpt lat="46.49587870" lon="6.70689583"><ele>388.51001</ele><time>2010-05-29T13:10:43Z</time></trkpt>
<trkpt lat="46.49553537" lon="6.70751810"><ele>391.393799</ele><time>2010-05-29T13:10:57Z</time></trkpt>
<trkpt lat="46.49536371" lon="6.70863390"><ele>392.355347</ele><time>2010-05-29T13:11:19Z</time></trkpt>
<trkpt lat="46.49454832" lon="6.71011448"><ele>397.642456</ele><time>2010-05-29T13:11:59Z</time></trkpt>
<trkpt lat="46.49358273" lon="6.71099424"><ele>395.239136</ele><time>2010-05-29T13:12:29Z</time></trkpt>
<trkpt lat="46.49291754" lon="6.71208858"><ele>402.929688</ele><time>2010-05-29T13:13:04Z</time></trkpt>
<trkpt lat="46.49214506" lon="6.71298981"><ele>410.139648</ele><time>2010-05-29T13:13:43Z</time></trkpt>
<trkpt lat="46.49193048" lon="6.71453476"><ele>408.697632</ele><time>2010-05-29T13:14:13Z</time></trkpt>
<trkpt lat="46.49156570" lon="6.71569347"><ele>412.062256</ele><time>2010-05-29T13:14:33Z</time></trkpt>
<trkpt lat="46.49066448" lon="6.71715260"><ele>412.542847</ele><time>2010-05-29T13:15:10Z</time></trkpt>
<trkpt lat="46.48972034" lon="6.71816111"><ele>403.4104</ele><time>2010-05-29T13:15:24Z</time></trkpt>
<trkpt lat="46.48838997" lon="6.72052145"><ele>406.294312</ele><time>2010-05-29T13:16:05Z</time></trkpt>
<trkpt lat="46.48817539" lon="6.72129393"><ele>408.217041</ele><time>2010-05-29T13:16:19Z</time></trkpt>
<trkpt lat="46.48843288" lon="6.72597170"><ele>396.200562</ele><time>2010-05-29T13:17:24Z</time></trkpt>
<trkpt lat="46.48886204" lon="6.72725916"><ele>394.277954</ele><time>2010-05-29T13:17:49Z</time></trkpt>
<trkpt lat="46.48886204" lon="6.72785997"><ele>388.51001</ele><time>2010-05-29T13:18:11Z</time></trkpt>
<trkpt lat="46.49023533" lon="6.73150778"><ele>397.161743</ele><time>2010-05-29T13:19:46Z</time></trkpt>
<trkpt lat="46.49126530" lon="6.73571348"><ele>397.161743</ele><time>2010-05-29T13:20:55Z</time></trkpt>
<trkpt lat="46.49122238" lon="6.73820257"><ele>404.852295</ele><time>2010-05-29T13:23:19Z</time></trkpt>
<trkpt lat="46.49066448" lon="6.74124956"><ele>417.8302</ele><time>2010-05-29T13:24:59Z</time></trkpt>
<trkpt lat="46.49055719" lon="6.74300909"><ele>415.907471</ele><time>2010-05-29T13:26:44Z</time></trkpt>
<trkpt lat="46.49072886" lon="6.74073458"><ele>413.984863</ele><time>2010-05-29T13:27:38Z</time></trkpt>
<trkpt lat="46.49111509" lon="6.73918962"><ele>405.333008</ele><time>2010-05-29T13:28:10Z</time></trkpt>
<trkpt lat="46.49150133" lon="6.73994064"><ele>418.310791</ele><time>2010-05-29T13:29:04Z</time></trkpt>
<trkpt lat="46.49150133" lon="6.74075603"><ele>427.92395</ele><time>2010-05-29T13:29:59Z</time></trkpt>
<trkpt lat="46.49193048" lon="6.74300909"><ele>449.072998</ele><time>2010-05-29T13:31:44Z</time></trkpt>
<trkpt lat="46.49190903" lon="6.74365282"><ele>456.282959</ele><time>2010-05-29T13:32:15Z</time></trkpt>
<trkpt lat="46.49147987" lon="6.74401760"><ele>450.034424</ele><time>2010-05-29T13:32:34Z</time></trkpt>
<trkpt lat="46.49132967" lon="6.74455404"><ele>443.785767</ele><time>2010-05-29T13:32:44Z</time></trkpt>
<trkpt lat="46.49083614" lon="6.74485445"><ele>435.614502</ele><time>2010-05-29T13:33:01Z</time></trkpt>
<trkpt lat="46.49062157" lon="6.74597025"><ele>432.730713</ele><time>2010-05-29T13:33:24Z</time></trkpt>
<trkpt lat="46.48967743" lon="6.74787998"><ele>430.327271</ele><time>2010-05-29T13:34:04Z</time></trkpt>
<trkpt lat="46.48929119" lon="6.74957514"><ele>438.498535</ele><time>2010-05-29T13:34:57Z</time></trkpt>
<trkpt lat="46.48858309" lon="6.75030470"><ele>441.382446</ele><time>2010-05-29T13:35:22Z</time></trkpt>
<trkpt lat="46.48793936" lon="6.75210714"><ele>440.421265</ele><time>2010-05-29T13:35:58Z</time></trkpt>
<trkpt lat="46.48695230" lon="6.75390959"><ele>435.614502</ele><time>2010-05-29T13:36:25Z</time></trkpt>
<trkpt lat="46.48594379" lon="6.75500393"><ele>435.133911</ele><time>2010-05-29T13:36:54Z</time></trkpt>
<trkpt lat="46.48517132" lon="6.75652742"><ele>443.785767</ele><time>2010-05-29T13:37:37Z</time></trkpt>
<trkpt lat="46.48444176" lon="6.75762177"><ele>444.266479</ele><time>2010-05-29T13:38:01Z</time></trkpt>
<trkpt lat="46.48173809" lon="6.76081896"><ele>440.901855</ele><time>2010-05-29T13:39:09Z</time></trkpt>
<trkpt lat="46.47976398" lon="6.76459551"><ele>432.730713</ele><time>2010-05-29T13:40:06Z</time></trkpt>
<trkpt lat="46.47959232" lon="6.76536798"><ele>431.769165</ele><time>2010-05-29T13:40:15Z</time></trkpt>
<trkpt lat="46.47869110" lon="6.76762104"><ele>434.172607</ele><time>2010-05-29T13:40:47Z</time></trkpt>
<trkpt lat="46.47778988" lon="6.77096844"><ele>450.515015</ele><time>2010-05-29T13:42:27Z</time></trkpt>
<trkpt lat="46.47736073" lon="6.77178383"><ele>449.553711</ele><time>2010-05-29T13:42:42Z</time></trkpt>
<trkpt lat="46.47706032" lon="6.77313566"><ele>461.57019</ele><time>2010-05-29T13:43:25Z</time></trkpt>
<trkpt lat="46.47652388" lon="6.77476645"><ele>466.376709</ele><time>2010-05-29T13:44:18Z</time></trkpt>
<trkpt lat="46.47639513" lon="6.77476645"><ele>468.299316</ele><time>2010-05-29T13:46:40Z</time></trkpt>
<trkpt lat="46.47624493" lon="6.77504539"><ele>466.857422</ele><time>2010-05-29T13:46:53Z</time></trkpt>
<trkpt lat="46.47613764" lon="6.77566767"><ele>459.16687</ele><time>2010-05-29T13:47:04Z</time></trkpt>
<trkpt lat="46.47598743" lon="6.77693367"><ele>438.979126</ele><time>2010-05-29T13:47:31Z</time></trkpt>
<trkpt lat="46.47624493" lon="6.77712679"><ele>435.133911</ele><time>2010-05-29T13:47:42Z</time></trkpt>
<trkpt lat="46.47622347" lon="6.77742720"><ele>434.65332</ele><time>2010-05-29T13:47:48Z</time></trkpt>
<trkpt lat="46.47600889" lon="6.77774906"><ele>436.575928</ele><time>2010-05-29T13:47:58Z</time></trkpt>
<trkpt lat="46.47658825" lon="6.77910089"><ele>446.669678</ele><time>2010-05-29T13:48:51Z</time></trkpt>
<trkpt lat="46.47691011" lon="6.77916527"><ele>446.669678</ele><time>2010-05-29T13:49:07Z</time></trkpt>
<trkpt lat="46.47710323" lon="6.77976608"><ele>449.072998</ele><time>2010-05-29T13:49:21Z</time></trkpt>
<trkpt lat="46.47712469" lon="6.78105354"><ele>452.437622</ele><time>2010-05-29T13:49:46Z</time></trkpt>
<trkpt lat="46.47684574" lon="6.78178310"><ele>451.957031</ele><time>2010-05-29T13:50:01Z</time></trkpt>
<trkpt lat="46.47577286" lon="6.78343534"><ele>437.056519</ele><time>2010-05-29T13:50:37Z</time></trkpt>
<trkpt lat="46.47530079" lon="6.78502321"><ele>424.078735</ele><time>2010-05-29T13:51:07Z</time></trkpt>
<trkpt lat="46.47540808" lon="6.78538799"><ele>419.272217</ele><time>2010-05-29T13:51:12Z</time></trkpt>
<trkpt lat="46.47572994" lon="6.78568840"><ele>416.388184</ele><time>2010-05-29T13:51:16Z</time></trkpt>
<trkpt lat="46.47581577" lon="6.78607464"><ele>420.714111</ele><time>2010-05-29T13:51:21Z</time></trkpt>
<trkpt lat="46.47575140" lon="6.78725481"><ele>420.714111</ele><time>2010-05-29T13:51:35Z</time></trkpt>
<trkpt lat="46.47540808" lon="6.78937912"><ele>411.581665</ele><time>2010-05-29T13:51:57Z</time></trkpt>
<trkpt lat="46.47472143" lon="6.79124594"><ele>412.062256</ele><time>2010-05-29T13:52:22Z</time></trkpt>
<trkpt lat="46.47422791" lon="6.79397106"><ele>431.769165</ele><time>2010-05-29T13:54:06Z</time></trkpt>
<trkpt lat="46.47437811" lon="6.79401398"><ele>438.498535</ele><time>2010-05-29T13:55:51Z</time></trkpt>
<trkpt lat="46.47502184" lon="6.79264069"><ele>455.321533</ele><time>2010-05-29T13:57:41Z</time></trkpt>
<trkpt lat="46.47575140" lon="6.79195404"><ele>471.18335</ele><time>2010-05-29T13:59:04Z</time></trkpt>
<trkpt lat="46.47635221" lon="6.79098845"><ele>481.757813</ele><time>2010-05-29T14:00:07Z</time></trkpt>
<trkpt lat="46.47680283" lon="6.79051638"><ele>490.890381</ele><time>2010-05-29T14:00:47Z</time></trkpt>
<trkpt lat="46.47772551" lon="6.78740501"><ele>498.580933</ele><time>2010-05-29T14:03:41Z</time></trkpt>
<trkpt lat="46.47821903" lon="6.78392887"><ele>507.232788</ele><time>2010-05-29T14:05:04Z</time></trkpt>
<trkpt lat="46.47901297" lon="6.78279161"><ele>514.442627</ele><time>2010-05-29T14:05:49Z</time></trkpt>
<trkpt lat="46.47969961" lon="6.78210497"><ele>522.613892</ele><time>2010-05-29T14:06:28Z</time></trkpt>
<trkpt lat="46.47976398" lon="6.78174019"><ele>524.536499</ele><time>2010-05-29T14:06:43Z</time></trkpt>
<trkpt lat="46.47935629" lon="6.77877903"><ele>533.668945</ele><time>2010-05-29T14:08:10Z</time></trkpt>
<trkpt lat="46.47991419" lon="6.77772760"><ele>547.127441</ele><time>2010-05-29T14:11:10Z</time></trkpt>
<trkpt lat="46.48006439" lon="6.77712679"><ele>553.856689</ele><time>2010-05-29T14:11:41Z</time></trkpt>
<trkpt lat="46.48107290" lon="6.77665472"><ele>572.602539</ele><time>2010-05-29T14:13:07Z</time></trkpt>
<trkpt lat="46.48150206" lon="6.77551746"><ele>574.525146</ele><time>2010-05-29T14:14:01Z</time></trkpt>
<trkpt lat="46.48173809" lon="6.77558184"><ele>577.40918</ele><time>2010-05-29T14:15:06Z</time></trkpt>
<trkpt lat="46.48190975" lon="6.77521706"><ele>578.851074</ele><time>2010-05-29T14:15:16Z</time></trkpt>
<trkpt lat="46.48186684" lon="6.77468061"><ele>578.851074</ele><time>2010-05-29T14:15:38Z</time></trkpt>
<trkpt lat="46.48229599" lon="6.77420855"><ele>584.618896</ele><time>2010-05-29T14:16:04Z</time></trkpt>
<trkpt lat="46.48229599" lon="6.77395105"><ele>586.541504</ele><time>2010-05-29T14:16:13Z</time></trkpt>
<trkpt lat="46.48169518" lon="6.77369356"><ele>590.867432</ele><time>2010-05-29T14:16:40Z</time></trkpt>
<trkpt lat="46.48092270" lon="6.77229881"><ele>596.635498</ele><time>2010-05-29T14:18:38Z</time></trkpt>
<trkpt lat="46.48109436" lon="6.77227736"><ele>601.441895</ele><time>2010-05-29T14:18:55Z</time></trkpt>
<trkpt lat="46.48171663" lon="6.77131176"><ele>612.016602</ele><time>2010-05-29T14:20:05Z</time></trkpt>
<trkpt lat="46.48270369" lon="6.77011013"><ele>635.088135</ele><time>2010-05-29T14:22:11Z</time></trkpt>
<trkpt lat="46.48289680" lon="6.76914454"><ele>636.530273</ele><time>2010-05-29T14:22:53Z</time></trkpt>
<trkpt lat="46.48351908" lon="6.76832914"><ele>643.259277</ele><time>2010-05-29T14:23:28Z</time></trkpt>
<trkpt lat="46.48392677" lon="6.76717043"><ele>645.662598</ele><time>2010-05-29T14:24:12Z</time></trkpt>
<trkpt lat="46.48489237" lon="6.76519632"><ele>654.314697</ele><time>2010-05-29T14:25:14Z</time></trkpt>
<trkpt lat="46.48512840" lon="6.76365137"><ele>649.507813</ele><time>2010-05-29T14:25:42Z</time></trkpt>
<trkpt lat="46.48557901" lon="6.76298618"><ele>648.065918</ele><time>2010-05-29T14:25:56Z</time></trkpt>
<trkpt lat="46.48579359" lon="6.76240683"><ele>648.065918</ele><time>2010-05-29T14:26:07Z</time></trkpt>
<trkpt lat="46.48652315" lon="6.76184893"><ele>647.104492</ele><time>2010-05-29T14:26:29Z</time></trkpt>
<trkpt lat="46.48899078" lon="6.75905943"><ele>656.717773</ele><time>2010-05-29T14:27:51Z</time></trkpt>
<trkpt lat="46.48959160" lon="6.75779343"><ele>652.872559</ele><time>2010-05-29T14:28:14Z</time></trkpt>
<trkpt lat="46.49034262" lon="6.75672054"><ele>643.73999</ele><time>2010-05-29T14:28:42Z</time></trkpt>
<trkpt lat="46.49038553" lon="6.75648451"><ele>643.73999</ele><time>2010-05-29T14:29:09Z</time></trkpt>
<trkpt lat="46.49023533" lon="6.75674200"><ele>642.298096</ele><time>2010-05-29T14:32:46Z</time></trkpt>
<trkpt lat="46.49010658" lon="6.75667763"><ele>641.817383</ele><time>2010-05-29T14:32:53Z</time></trkpt>
<trkpt lat="46.49034262" lon="6.75541162"><ele>624.032959</ele><time>2010-05-29T14:33:10Z</time></trkpt>
<trkpt lat="46.49072886" lon="6.75433874"><ele>607.209961</ele><time>2010-05-29T14:33:24Z</time></trkpt>
<trkpt lat="46.49100780" lon="6.75393105"><ele>601.922607</ele><time>2010-05-29T14:33:30Z</time></trkpt>
<trkpt lat="46.49154425" lon="6.75345898"><ele>597.59668</ele><time>2010-05-29T14:33:40Z</time></trkpt>
<trkpt lat="46.49178028" lon="6.75305128"><ele>591.828857</ele><time>2010-05-29T14:33:48Z</time></trkpt>
<trkpt lat="46.49205923" lon="6.75152779"><ele>568.276367</ele><time>2010-05-29T14:34:05Z</time></trkpt>
<trkpt lat="46.49308920" lon="6.74882412"><ele>527.42041</ele><time>2010-05-29T14:34:35Z</time></trkpt>
<trkpt lat="46.49302483" lon="6.74828768"><ele>519.729858</ele><time>2010-05-29T14:34:43Z</time></trkpt>
<trkpt lat="46.49323940" lon="6.74736500"><ele>511.558716</ele><time>2010-05-29T14:34:55Z</time></trkpt>
<trkpt lat="46.49319649" lon="6.74689293"><ele>502.426147</ele><time>2010-05-29T14:35:01Z</time></trkpt>
<trkpt lat="46.49274588" lon="6.74584150"><ele>484.641846</ele><time>2010-05-29T14:35:23Z</time></trkpt>
<trkpt lat="46.49227381" lon="6.74554110"><ele>466.376709</ele><time>2010-05-29T14:35:43Z</time></trkpt>
<trkpt lat="46.49253130" lon="6.74474716"><ele>465.415527</ele><time>2010-05-29T14:37:13Z</time></trkpt>
<trkpt lat="46.49223089" lon="6.74384594"><ele>462.531372</ele><time>2010-05-29T14:37:39Z</time></trkpt>
<trkpt lat="46.49188757" lon="6.74354553"><ele>459.647583</ele><time>2010-05-29T14:37:50Z</time></trkpt>
<trkpt lat="46.49147987" lon="6.74002647"><ele>419.272217</ele><time>2010-05-29T14:38:26Z</time></trkpt>
<trkpt lat="46.49113655" lon="6.73925400"><ele>407.255615</ele><time>2010-05-29T14:38:36Z</time></trkpt>
<trkpt lat="46.49109364" lon="6.73873901"><ele>403.4104</ele><time>2010-05-29T14:38:42Z</time></trkpt>
<trkpt lat="46.49130821" lon="6.73755884"><ele>401.487793</ele><time>2010-05-29T14:38:55Z</time></trkpt>
<trkpt lat="46.49128675" lon="6.73577785"><ele>397.161743</ele><time>2010-05-29T14:39:15Z</time></trkpt>
<trkpt lat="46.49025679" lon="6.73159361"><ele>397.161743</ele><time>2010-05-29T14:40:09Z</time></trkpt>
<trkpt lat="46.48920536" lon="6.72871828"><ele>394.277954</ele><time>2010-05-29T14:41:01Z</time></trkpt>
<trkpt lat="46.48903370" lon="6.72796726"><ele>391.874512</ele><time>2010-05-29T14:41:10Z</time></trkpt>
<trkpt lat="46.48911953" lon="6.72683001"><ele>392.835938</ele><time>2010-05-29T14:41:30Z</time></trkpt>
<trkpt lat="46.48875475" lon="6.72678709"><ele>394.277954</ele><time>2010-05-29T14:41:40Z</time></trkpt>
<trkpt lat="46.48860455" lon="6.72640085"><ele>394.277954</ele><time>2010-05-29T14:41:48Z</time></trkpt>
<trkpt lat="46.48866892" lon="6.72614336"><ele>394.758545</ele><time>2010-05-29T14:41:53Z</time></trkpt>
<trkpt lat="46.48838997" lon="6.72507048"><ele>396.200562</ele><time>2010-05-29T14:42:12Z</time></trkpt>
<trkpt lat="46.48838997" lon="6.72419071"><ele>397.161743</ele><time>2010-05-29T14:42:25Z</time></trkpt>
<trkpt lat="46.48819685" lon="6.72343969"><ele>400.526489</ele><time>2010-05-29T14:42:46Z</time></trkpt>
<trkpt lat="46.48821831" lon="6.72099352"><ele>404.852295</ele><time>2010-05-29T14:43:53Z</time></trkpt>
<trkpt lat="46.48858309" lon="6.72004938"><ele>403.891113</ele><time>2010-05-29T14:44:06Z</time></trkpt>
<trkpt lat="46.48946285" lon="6.71856880"><ele>399.084351</ele><time>2010-05-29T14:44:24Z</time></trkpt>
<trkpt lat="46.48982763" lon="6.71798944"><ele>401.487793</ele><time>2010-05-29T14:44:31Z</time></trkpt>
<trkpt lat="46.49055719" lon="6.71730280"><ele>406.774902</ele><time>2010-05-29T14:44:54Z</time></trkpt>
<trkpt lat="46.49169445" lon="6.71545744"><ele>407.255615</ele><time>2010-05-29T14:45:41Z</time></trkpt>
<trkpt lat="46.49197340" lon="6.71429873"><ele>406.294312</ele><time>2010-05-29T14:45:51Z</time></trkpt>
<trkpt lat="46.49201632" lon="6.71333313"><ele>406.294312</ele><time>2010-05-29T14:46:05Z</time></trkpt>
<trkpt lat="46.49225235" lon="6.71277523"><ele>405.333008</ele><time>2010-05-29T14:46:13Z</time></trkpt>
<trkpt lat="46.49291754" lon="6.71202421"><ele>401.00708</ele><time>2010-05-29T14:46:24Z</time></trkpt>
<trkpt lat="46.49336815" lon="6.71116590"><ele>393.797241</ele><time>2010-05-29T14:46:32Z</time></trkpt>
<trkpt lat="46.49448395" lon="6.71026468"><ele>395.719849</ele><time>2010-05-29T14:46:53Z</time></trkpt>
<trkpt lat="46.49532080" lon="6.70886993"><ele>390.432617</ele><time>2010-05-29T14:47:17Z</time></trkpt>
<trkpt lat="46.49568558" lon="6.70741081"><ele>391.393799</ele><time>2010-05-29T14:47:41Z</time></trkpt>
<trkpt lat="46.49602890" lon="6.70674562"><ele>390.913208</ele><time>2010-05-29T14:47:51Z</time></trkpt>
<trkpt lat="46.49600744" lon="6.70618773"><ele>390.913208</ele><time>2010-05-29T14:47:57Z</time></trkpt>
<trkpt lat="46.49628639" lon="6.70543671"><ele>390.432617</ele><time>2010-05-29T14:48:12Z</time></trkpt>
<trkpt lat="46.49772406" lon="6.70213223"><ele>385.625977</ele><time>2010-05-29T14:48:53Z</time></trkpt>
<trkpt lat="46.49868965" lon="6.70035124"><ele>383.703247</ele><time>2010-05-29T14:49:14Z</time></trkpt>
<trkpt lat="46.49903297" lon="6.69895649"><ele>382.261353</ele><time>2010-05-29T14:49:27Z</time></trkpt>
<trkpt lat="46.50047064" lon="6.69502974"><ele>381.78064</ele><time>2010-05-29T14:50:11Z</time></trkpt>
<trkpt lat="46.50055647" lon="6.69419289"><ele>381.78064</ele><time>2010-05-29T14:50:28Z</time></trkpt>
<trkpt lat="46.50077105" lon="6.69406414"><ele>381.300049</ele><time>2010-05-29T14:50:42Z</time></trkpt>
<trkpt lat="46.50068521" lon="6.69384956"><ele>381.78064</ele><time>2010-05-29T14:50:53Z</time></trkpt>
<trkpt lat="46.50081396" lon="6.69427872"><ele>381.300049</ele><time>2010-05-29T14:51:14Z</time></trkpt>
<trkpt lat="46.50077105" lon="6.69412851"><ele>380.819458</ele><time>2010-05-29T14:51:21Z</time></trkpt>
<trkpt lat="46.50070667" lon="6.69417143"><ele>380.819458</ele><time>2010-05-29T14:51:39Z</time></trkpt>
<trkpt lat="46.50169373" lon="6.69590950"><ele>386.587402</ele><time>2010-05-29T14:52:38Z</time></trkpt>
<trkpt lat="46.50190830" lon="6.69593096"><ele>388.990601</ele><time>2010-05-29T14:52:46Z</time></trkpt>
<trkpt lat="46.50201559" lon="6.69565201"><ele>389.951904</ele><time>2010-05-29T14:52:54Z</time></trkpt>
<trkpt lat="46.50218725" lon="6.69414997"><ele>396.200562</ele><time>2010-05-29T14:53:31Z</time></trkpt>
<trkpt lat="46.50259495" lon="6.69333458"><ele>399.084351</ele><time>2010-05-29T14:53:58Z</time></trkpt>
<trkpt lat="46.50205851" lon="6.69101715"><ele>390.913208</ele><time>2010-05-29T14:54:46Z</time></trkpt>
<trkpt lat="46.50317430" lon="6.68874264"><ele>388.51001</ele><time>2010-05-29T14:55:33Z</time></trkpt>
<trkpt lat="46.50383949" lon="6.68775558"><ele>389.951904</ele><time>2010-05-29T14:55:58Z</time></trkpt>
<trkpt lat="46.50409698" lon="6.68715477"><ele>390.913208</ele><time>2010-05-29T14:56:09Z</time></trkpt>
<trkpt lat="46.50448322" lon="6.68681145"><ele>389.471191</ele><time>2010-05-29T14:56:24Z</time></trkpt>
<trkpt lat="46.50429010" lon="6.68599606"><ele>386.587402</ele><time>2010-05-29T14:56:41Z</time></trkpt>
<trkpt lat="46.50512695" lon="6.68305635"><ele>389.471191</ele><time>2010-05-29T14:57:26Z</time></trkpt>
<trkpt lat="46.50523424" lon="6.67925835"><ele>391.874512</ele><time>2010-05-29T14:58:21Z</time></trkpt>
<trkpt lat="46.50540590" lon="6.67797089"><ele>392.355347</ele><time>2010-05-29T14:58:41Z</time></trkpt>
<trkpt lat="46.50594234" lon="6.67670488"><ele>395.239136</ele><time>2010-05-29T14:59:03Z</time></trkpt>
<trkpt lat="46.50581360" lon="6.67565346"><ele>388.990601</ele><time>2010-05-29T14:59:17Z</time></trkpt>
<trkpt lat="46.50677919" lon="6.67277813"><ele>394.758545</ele><time>2010-05-29T15:00:35Z</time></trkpt>
<trkpt lat="46.50722980" lon="6.67187691"><ele>394.277954</ele><time>2010-05-29T15:00:46Z</time></trkpt>
<trkpt lat="46.50843143" lon="6.67003155"><ele>395.239136</ele><time>2010-05-29T15:01:14Z</time></trkpt>
<trkpt lat="46.50866747" lon="6.66988134"><ele>396.681152</ele><time>2010-05-29T15:01:22Z</time></trkpt>
<trkpt lat="46.50890350" lon="6.67003155"><ele>398.60376</ele><time>2010-05-29T15:01:45Z</time></trkpt>
<trkpt lat="46.50875330" lon="6.66979551"><ele>399.084351</ele><time>2010-05-29T15:01:53Z</time></trkpt>
<trkpt lat="46.50903225" lon="6.66874409"><ele>401.00708</ele><time>2010-05-29T15:02:13Z</time></trkpt>
<trkpt lat="46.50903225" lon="6.66685581"><ele>405.813721</ele><time>2010-05-29T15:02:47Z</time></trkpt>
<trkpt lat="46.50933266" lon="6.66561127"><ele>412.062256</ele><time>2010-05-29T15:03:15Z</time></trkpt>
<trkpt lat="46.50924683" lon="6.66518211"><ele>413.02356</ele><time>2010-05-29T15:03:23Z</time></trkpt>
<trkpt lat="46.50948286" lon="6.66340113"><ele>419.752808</ele><time>2010-05-29T15:04:08Z</time></trkpt>
<trkpt lat="46.51044846" lon="6.65932417"><ele>422.636719</ele><time>2010-05-29T15:05:25Z</time></trkpt>
<trkpt lat="46.50939703" lon="6.64561272"><ele>416.388184</ele><time>2010-05-29T15:08:11Z</time></trkpt>
<trkpt lat="46.50939703" lon="6.64346695"><ele>419.752808</ele><time>2010-05-29T15:08:50Z</time></trkpt>
<trkpt lat="46.51115656" lon="6.63687944"><ele>424.559448</ele><time>2010-05-29T15:10:37Z</time></trkpt>
<trkpt lat="46.51270151" lon="6.63419724"><ele>423.598022</ele><time>2010-05-29T15:11:17Z</time></trkpt>
<trkpt lat="46.51287317" lon="6.63312435"><ele>426.482056</ele><time>2010-05-29T15:11:39Z</time></trkpt>
<trkpt lat="46.51377439" lon="6.63110733"><ele>422.636719</ele><time>2010-05-29T15:12:12Z</time></trkpt>
<trkpt lat="46.51461124" lon="6.62752390"><ele>421.675415</ele><time>2010-05-29T15:13:09Z</time></trkpt>
<trkpt lat="46.51484728" lon="6.62711620"><ele>422.636719</ele><time>2010-05-29T15:13:24Z</time></trkpt>
<trkpt lat="46.51512623" lon="6.62722349"><ele>422.636719</ele><time>2010-05-29T15:13:38Z</time></trkpt>
<trkpt lat="46.51514769" lon="6.62765265"><ele>423.117432</ele><time>2010-05-29T15:14:07Z</time></trkpt>
</trkseg></trk></gpx>